Time;durP1;ratioP1;P1;durP2;ratioP2;P2;SDS_P1;SDS_P2;PMS_P1;PMS_P2;Temp;Humidity;BMP_temperature;BMP_pressure;BME280_temperature;BME280_humidity;BME280_pressure;Samples;Min_cycle;Max_cycle;Signal;HPM_P1;HPM_P2
2021/08/02 00:00:17;;;;;;;2.90;1.95;;;;;;;13.79;90.69;98729.13;5037422;28;20053;-82
2021/08/02 00:03:00;;;;;;;2.88;2.50;;;;;;;13.98;89.37;98731.97;5036275;28;20049;-81
2021/08/02 00:05:30;;;;;;;4.63;2.13;;;;;;;13.96;88.84;98704.88;5046300;28;20457;-82
2021/08/02 00:08:01;;;;;;;2.40;2.15;;;;;;;14.18;88.00;98720.09;5035446;28;20041;-82
2021/08/02 00:10:31;;;;;;;4.88;2.10;;;;;;;14.16;88.59;98731.25;5043843;28;20053;-82
2021/08/02 00:13:01;;;;;;;8.43;2.00;;;;;;;14.11;89.07;98731.09;5038776;28;20068;-82
2021/08/02 00:15:30;;;;;;;5.22;2.33;;;;;;;13.99;89.38;98720.00;5043498;28;20480;-81
2021/08/02 00:17:57;;;;;;;2.65;1.95;;;;;;;13.96;89.93;98734.09;5039616;28;20042;-81
2021/08/02 00:20:32;;;;;;;3.47;2.00;;;;;;;13.91;89.84;98712.03;5043578;28;20056;-82
2021/08/02 00:23:01;;;;;;;4.35;1.70;;;;;;;13.78;91.07;98726.63;5037514;28;20049;-83
2021/08/02 00:25:32;;;;;;;7.10;2.00;;;;;;;13.80;90.42;98711.69;5036621;28;20045;-82
2021/08/02 00:28:03;;;;;;;5.78;2.25;;;;;;;13.91;91.01;98744.81;5040065;28;20044;-82
2021/08/02 00:30:33;;;;;;;2.40;1.90;;;;;;;13.94;91.40;98747.13;5050459;28;20497;-81
2021/08/02 00:32:59;;;;;;;2.25;1.70;;;;;;;13.87;91.86;98746.34;5043273;28;20055;-81
2021/08/02 00:35:26;;;;;;;4.30;2.22;;;;;;;13.76;92.05;98735.03;5036922;28;20053;-81
2021/08/02 00:38:04;;;;;;;2.80;2.22;;;;;;;13.75;92.40;98737.97;5048785;28;20053;-82
2021/08/02 00:41:06;;;;;;;3.83;2.13;;;;;;;13.86;91.44;98736.47;5042412;28;20045;-82
2021/08/02 00:44:14;;;;;;;2.75;1.90;;;;;;;13.90;90.69;98735.81;5032946;28;20111;-81
2021/08/02 00:46:48;;;;;;;3.00;1.90;;;;;;;13.96;91.61;98747.78;5047450;28;20484;-82
2021/08/02 00:49:17;;;;;;;3.33;1.95;;;;;;;13.92;91.53;98743.78;5048128;28;20115;-82
2021/08/02 00:51:50;;;;;;;4.82;1.85;;;;;;;13.80;91.99;98743.63;5049174;28;20045;-82
2021/08/02 00:54:19;;;;;;;2.22;1.70;;;;;;;13.96;91.70;98750.50;5039012;28;20116;-82
2021/08/02 00:56:48;;;;;;;2.65;1.60;;;;;;;13.89;91.16;98742.31;5042707;28;20562;-82
2021/08/02 00:59:15;;;;;;;2.72;2.00;;;;;;;13.77;91.89;98725.75;5039968;28;20057;-83
2021/08/02 01:01:44;;;;;;;4.85;1.90;;;;;;;13.89;92.18;98750.50;5050148;28;20053;-82
2021/08/02 01:04:12;;;;;;;2.22;2.00;;;;;;;13.98;91.91;98756.56;5038339;28;20077;-81
2021/08/02 01:06:40;;;;;;;3.00;2.20;;;;;;;13.95;92.96;98744.19;5037204;28;20123;-81
2021/08/02 01:09:07;;;;;;;2.22;1.75;;;;;;;14.06;91.86;98745.41;5041994;28;20091;-81
2021/08/02 01:11:36;;;;;;;5.55;2.50;;;;;;;14.12;92.41;98746.41;5047168;28;20099;-81
2021/08/02 01:14:04;;;;;;;3.65;1.50;;;;;;;14.08;92.29;98739.72;5037774;28;20481;-81
2021/08/02 01:16:31;;;;;;;2.10;1.70;;;;;;;14.15;92.55;98749.56;5041343;28;20559;-81
2021/08/02 01:19:01;;;;;;;3.65;1.85;;;;;;;14.18;92.31;98750.19;5043450;28;20041;-81
2021/08/02 01:21:27;;;;;;;2.70;2.30;;;;;;;14.21;91.64;98741.53;5041731;28;20106;-81
2021/08/02 01:23:58;;;;;;;2.38;1.70;;;;;;;14.33;90.95;98751.56;5042526;28;20128;-81
2021/08/02 01:27:10;;;;;;;3.05;1.95;;;;;;;14.36;91.14;98743.97;5036870;28;20110;-81
2021/08/02 01:30:14;;;;;;;5.85;2.10;;;;;;;14.41;90.06;98741.44;5033993;28;20425;-81
2021/08/02 01:32:41;;;;;;;4.53;2.35;;;;;;;14.44;90.17;98736.34;5033915;28;20053;-81
2021/08/02 01:35:10;;;;;;;3.15;2.03;;;;;;;14.61;89.57;98739.41;5038603;28;20049;-81
2021/08/02 01:37:37;;;;;;;2.05;1.85;;;;;;;14.49;90.27;98730.22;5035805;28;20559;-81
2021/08/02 01:40:06;;;;;;;2.80;1.60;;;;;;;14.62;88.97;98735.63;5038482;28;20061;-81
2021/08/02 01:42:33;;;;;;;2.55;1.92;;;;;;;14.55;89.97;98734.81;5046246;28;20551;-81
2021/08/02 01:45:00;;;;;;;1.60;1.38;;;;;;;14.60;88.66;98736.88;5050877;28;20096;-81
2021/08/02 01:47:36;;;;;;;2.42;1.75;;;;;;;14.63;88.79;98742.78;5045212;28;20045;-81
2021/08/02 01:50:11;;;;;;;5.85;1.85;;;;;;;14.57;88.11;98734.59;5047222;28;20133;-81
2021/08/02 01:52:47;;;;;;;3.33;1.95;;;;;;;14.63;88.69;98729.09;5039812;28;20096;-81
2021/08/02 01:55:18;;;;;;;2.72;1.67;;;;;;;14.67;87.41;98741.25;5033079;28;20185;-81
2021/08/02 01:57:49;;;;;;;3.20;1.75;;;;;;;14.74;87.74;98741.22;5041385;28;20455;-81
2021/08/02 02:00:17;;;;;;;2.25;1.65;;;;;;;14.67;88.14;98732.22;5043502;28;20562;-81
2021/08/02 02:02:51;;;;;;;3.95;1.77;;;;;;;14.63;87.38;98741.94;5037508;28;20048;-81
2021/08/02 02:05:22;;;;;;;3.65;1.50;;;;;;;14.71;87.35;98741.66;5052822;28;20052;-82
2021/08/02 02:07:52;;;;;;;4.22;1.90;;;;;;;14.64;87.07;98728.03;5044527;28;20058;-81
2021/08/02 02:10:23;;;;;;;3.05;1.50;;;;;;;14.71;86.68;98747.16;5040152;28;20115;-81
2021/08/02 02:12:51;;;;;;;3.30;1.60;;;;;;;14.75;86.25;98744.78;5044318;28;20151;-81
2021/08/02 02:15:18;;;;;;;2.67;1.67;;;;;;;14.75;86.19;98751.09;5032985;28;20050;-81
2021/08/02 02:17:46;;;;;;;4.85;1.70;;;;;;;14.68;85.93;98742.94;5036235;28;20096;-81
2021/08/02 02:20:14;;;;;;;2.88;1.58;;;;;;;14.56;86.41;98725.53;5041162;28;20041;-82
2021/08/02 02:22:43;;;;;;;2.90;1.80;;;;;;;14.48;87.02;98734.00;5036023;28;20104;-82
2021/08/02 02:25:14;;;;;;;2.25;1.92;;;;;;;14.46;87.06;98756.09;5039181;28;20204;-81
2021/08/02 02:27:43;;;;;;;2.30;1.45;;;;;;;14.33;87.44;98759.78;5043533;28;20096;-81
2021/08/02 02:30:11;;;;;;;2.77;1.70;;;;;;;14.25;87.79;98768.22;5040240;28;20056;-81
2021/08/02 02:32:39;;;;;;;5.18;1.90;;;;;;;14.10;88.96;98759.47;5049057;28;20176;-80
2021/08/02 02:35:07;;;;;;;4.30;1.83;;;;;;;13.96;89.76;98756.78;5034097;28;20041;-80
2021/08/02 02:37:34;;;;;;;4.22;2.03;;;;;;;14.00;89.93;98768.16;5040113;28;20072;-81
2021/08/02 02:40:02;;;;;;;2.40;1.77;;;;;;;13.89;90.75;98777.00;5033515;28;20073;-80
2021/08/02 02:42:30;;;;;;;2.78;1.63;;;;;;;13.87;90.92;98773.66;5035429;28;20396;-81
2021/08/02 02:44:59;;;;;;;3.80;1.73;;;;;;;13.84;90.65;98774.94;5050112;28;20171;-81
2021/08/02 02:47:27;;;;;;;3.00;1.55;;;;;;;13.77;90.69;98771.38;5032377;28;20049;-81
2021/08/02 02:49:55;;;;;;;10.00;1.73;;;;;;;13.67;90.42;98755.44;5035871;28;20075;-80
2021/08/02 02:52:24;;;;;;;6.10;1.50;;;;;;;13.72;89.93;98763.81;5057630;28;20056;-81
2021/08/02 02:54:52;;;;;;;3.90;1.80;;;;;;;13.76;89.71;98780.59;5041616;28;20075;-81
2021/08/02 02:57:19;;;;;;;2.88;1.30;;;;;;;13.68;90.10;98775.41;5038038;28;20199;-81
2021/08/02 02:59:46;;;;;;;5.10;1.48;;;;;;;13.56;90.15;98775.22;5043699;28;20098;-81
2021/08/02 03:02:15;;;;;;;2.70;1.70;;;;;;;13.54;90.00;98780.06;5045295;28;20555;-81
2021/08/02 03:04:49;;;;;;;1.77;1.50;;;;;;;13.55;89.60;98779.84;5048288;28;20048;-81
2021/08/02 03:07:17;;;;;;;4.32;1.92;;;;;;;13.43;90.12;98771.47;5043990;28;20049;-81
2021/08/02 03:09:49;;;;;;;4.28;2.13;;;;;;;13.55;89.30;98784.44;5039177;28;20049;-81
2021/08/02 03:12:16;;;;;;;2.85;1.50;;;;;;;13.55;89.94;98782.56;5040225;28;20543;-81
2021/08/02 03:14:43;;;;;;;2.15;1.45;;;;;;;13.30;90.86;98774.19;5039307;28;20048;-81
2021/08/02 03:17:10;;;;;;;2.67;1.80;;;;;;;13.24;90.94;98775.88;5035291;28;20053;-81
2021/08/02 03:19:39;;;;;;;7.55;1.70;;;;;;;13.19;91.02;98785.75;5034076;28;20056;-81
2021/08/02 03:22:16;;;;;;;5.20;1.48;;;;;;;13.27;90.56;98783.63;5035561;28;20543;-81
2021/08/02 03:24:46;;;;;;;4.13;1.80;;;;;;;13.01;90.79;98783.66;5036051;28;20042;-81
2021/08/02 03:27:26;;;;;;;5.00;1.77;;;;;;;12.98;90.38;98776.72;5034186;28;20050;-81
2021/08/02 03:29:55;;;;;;;2.35;1.67;;;;;;;13.00;90.97;98791.00;5038745;28;20037;-81
2021/08/02 03:32:25;;;;;;;3.95;1.60;;;;;;;12.82;90.86;98788.06;5039524;28;20083;-81
2021/08/02 03:34:58;;;;;;;2.75;2.05;;;;;;;12.92;91.29;98813.03;5033548;28;20045;-81
2021/08/02 03:37:27;;;;;;;4.55;1.60;;;;;;;12.98;91.16;98800.47;5035308;28;20052;-81
2021/08/02 03:39:56;;;;;;;3.47;1.70;;;;;;;12.95;91.47;98812.63;5036911;28;20049;-81
2021/08/02 03:42:23;;;;;;;4.13;1.73;;;;;;;12.84;90.99;98808.63;5041561;28;20045;-81
2021/08/02 03:44:51;;;;;;;4.28;1.90;;;;;;;12.83;91.23;98822.47;5035500;28;20378;-80
2021/08/02 03:47:19;;;;;;;4.05;1.70;;;;;;;12.73;91.81;98818.25;5039506;28;20112;-82
2021/08/02 03:49:46;;;;;;;5.90;1.92;;;;;;;12.68;92.82;98815.31;5039601;28;20109;-82
2021/08/02 03:52:14;;;;;;;2.22;1.73;;;;;;;12.70;92.54;98818.66;5051779;28;20046;-82
2021/08/02 03:54:41;;;;;;;7.15;2.25;;;;;;;12.77;92.54;98826.88;5036403;28;20100;-81
2021/08/02 03:57:09;;;;;;;5.72;2.13;;;;;;;12.75;92.60;98829.81;5044151;28;20068;-81
2021/08/02 03:59:36;;;;;;;2.30;1.80;;;;;;;12.72;93.09;98832.09;5041338;28;20386;-81
2021/08/02 04:02:02;;;;;;;2.97;2.10;;;;;;;12.81;92.78;98830.00;5048517;28;20100;-82
2021/08/02 04:04:29;;;;;;;3.63;1.95;;;;;;;12.80;93.06;98833.81;5046110;28;20053;-81
2021/08/02 04:06:56;;;;;;;5.72;2.67;;;;;;;12.89;93.00;98838.00;5040150;28;20096;-81
2021/08/02 04:09:24;;;;;;;2.85;1.83;;;;;;;12.87;92.98;98831.91;5042350;28;20485;-81
2021/08/02 04:11:51;;;;;;;2.95;1.80;;;;;;;12.81;93.93;98846.38;5038890;28;20041;-81
2021/08/02 04:14:18;;;;;;;4.57;2.00;;;;;;;12.79;94.10;98832.94;5041229;28;20068;-82
2021/08/02 04:16:48;;;;;;;7.25;1.60;;;;;;;12.72;93.99;98830.22;5036540;28;20119;-81
2021/08/02 04:19:15;;;;;;;4.18;2.50;;;;;;;12.71;94.57;98834.00;5051371;28;20553;-80
2021/08/02 04:21:41;;;;;;;1.90;1.58;;;;;;;12.88;94.55;98848.06;5047128;28;20563;-84
2021/08/02 04:24:08;;;;;;;2.35;1.77;;;;;;;13.00;94.06;98845.56;5043414;28;20049;-83
2021/08/02 04:26:37;;;;;;;2.30;1.90;;;;;;;12.94;94.42;98835.50;5035222;28;20053;-82
2021/08/02 04:29:03;;;;;;;3.05;1.92;;;;;;;13.05;94.67;98845.78;5036820;28;20080;-82
2021/08/02 04:31:32;;;;;;;3.22;1.73;;;;;;;13.02;94.35;98837.16;5034720;28;20053;-81
2021/08/02 04:33:59;;;;;;;1.52;1.42;;;;;;;13.14;94.51;98845.56;5034625;28;20436;-83
2021/08/02 04:36:27;;;;;;;5.60;2.22;;;;;;;13.09;93.80;98847.03;5045924;28;20447;-80
2021/08/02 04:38:53;;;;;;;3.47;1.98;;;;;;;13.18;93.52;98844.94;5040863;28;20052;-80
2021/08/02 04:41:20;;;;;;;6.75;2.00;;;;;;;13.21;93.86;98858.19;5043864;28;20045;-83
2021/08/02 04:43:48;;;;;;;2.42;1.50;;;;;;;13.17;94.90;98845.16;5046191;28;20059;-83
2021/08/02 04:46:15;;;;;;;1.65;1.50;;;;;;;13.21;94.67;98852.72;5037777;28;20053;-80
2021/08/02 04:48:42;;;;;;;2.50;1.70;;;;;;;13.19;94.44;98830.25;5039372;28;20103;-80
2021/08/02 04:51:10;;;;;;;6.00;1.85;;;;;;;13.13;94.57;98822.06;5033342;28;20417;-82
2021/08/02 04:53:36;;;;;;;6.63;2.28;;;;;;;13.44;94.41;98851.47;5033995;28;20053;-82
2021/08/02 04:56:04;;;;;;;3.78;1.90;;;;;;;13.55;94.00;98853.59;5045097;28;20080;-80
2021/08/02 04:58:31;;;;;;;2.47;1.88;;;;;;;13.46;94.49;98846.66;5042539;28;20151;-82
2021/08/02 05:00:59;;;;;;;3.67;2.13;;;;;;;13.58;94.60;98857.78;5041541;28;20077;-81
2021/08/02 05:03:26;;;;;;;8.75;1.98;;;;;;;13.53;94.70;98833.00;5036561;28;20049;-81
2021/08/02 05:05:54;;;;;;;3.83;2.03;;;;;;;13.65;94.36;98847.66;5042777;28;20433;-81
2021/08/02 05:08:21;;;;;;;3.05;2.15;;;;;;;13.69;94.77;98848.09;5042346;28;20576;-83
2021/08/02 05:10:48;;;;;;;3.72;2.28;;;;;;;13.72;93.72;98843.03;5036084;28;20095;-80
2021/08/02 05:13:15;;;;;;;3.15;2.13;;;;;;;13.88;93.41;98855.41;5042112;28;20489;-80
2021/08/02 05:15:42;;;;;;;17.65;3.55;;;;;;;13.96;94.19;98849.72;5039946;28;20408;-81
2021/08/02 05:18:11;;;;;;;3.83;2.10;;;;;;;14.02;92.13;98839.00;5039659;28;20501;-83
2021/08/02 05:20:38;;;;;;;3.67;1.98;;;;;;;14.07;92.88;98848.19;5042790;28;20464;-83
2021/08/02 05:23:04;;;;;;;4.75;2.20;;;;;;;14.05;92.50;98847.59;5033872;28;20045;-83
2021/08/02 05:25:35;;;;;;;2.75;1.90;;;;;;;13.96;92.97;98836.03;5034456;28;20049;-83
2021/08/02 05:28:02;;;;;;;3.97;2.33;;;;;;;14.21;92.76;98861.81;5037365;28;20049;-83
2021/08/02 05:30:36;;;;;;;2.30;2.00;;;;;;;14.08;93.56;98847.16;5050575;28;20381;-84
2021/08/02 05:33:03;;;;;;;3.95;2.60;;;;;;;14.17;92.97;98839.56;5044296;28;20045;-83
2021/08/02 05:35:32;;;;;;;5.07;2.65;;;;;;;14.33;92.42;98854.63;5037449;28;20041;-82
2021/08/02 05:37:59;;;;;;;3.90;2.60;;;;;;;14.28;93.26;98844.34;5034632;28;20041;-82
2021/08/02 05:40:43;;;;;;;3.22;2.50;;;;;;;14.43;92.45;98849.53;5036989;28;20489;-81
2021/08/02 05:43:10;;;;;;;6.22;2.55;;;;;;;14.52;90.96;98842.75;5035326;28;20441;-81
2021/08/02 05:45:40;;;;;;;4.45;2.58;;;;;;;14.49;91.86;98851.38;5037114;28;20100;-81
2021/08/02 05:48:07;;;;;;;5.18;2.28;;;;;;;14.57;91.84;98852.19;5033146;28;20056;-82
2021/08/02 05:50:35;;;;;;;5.53;2.50;;;;;;;14.69;91.54;98872.38;5033922;28;20489;-81
2021/08/02 05:53:02;;;;;;;2.83;2.53;;;;;;;14.66;90.74;98862.72;5037782;28;20064;-81
2021/08/02 05:55:31;;;;;;;7.88;2.60;;;;;;;14.79;89.90;98869.16;5042880;28;20259;-81
2021/08/02 05:57:58;;;;;;;5.05;2.65;;;;;;;14.57;91.28;98857.66;5048829;28;20045;-81
2021/08/02 06:00:25;;;;;;;11.77;2.92;;;;;;;14.71;91.66;98872.16;5036587;28;20049;-81
2021/08/02 06:03:01;;;;;;;5.40;2.70;;;;;;;14.88;89.82;98865.09;5032600;28;20450;-81
2021/08/02 06:05:28;;;;;;;7.05;2.60;;;;;;;14.91;90.37;98875.59;5041353;28;20100;-82
2021/08/02 06:07:56;;;;;;;3.78;2.40;;;;;;;15.00;89.35;98884.41;5039012;28;20049;-81
2021/08/02 06:10:23;;;;;;;2.83;2.15;;;;;;;14.92;89.60;98866.34;5035006;28;20041;-82
2021/08/02 06:12:50;;;;;;;7.25;2.13;;;;;;;15.07;89.60;98870.66;5041484;28;20552;-81
2021/08/02 06:15:22;;;;;;;4.32;1.85;;;;;;;15.06;89.47;98879.94;5036055;28;20045;-81
2021/08/02 06:17:49;;;;;;;7.60;2.30;;;;;;;15.07;89.61;98871.53;5035177;28;20042;-81
2021/08/02 06:20:23;;;;;;;8.65;2.20;;;;;;;15.20;89.14;98889.72;5040459;28;20049;-81
2021/08/02 06:22:50;;;;;;;6.78;2.65;;;;;;;15.38;89.36;98891.69;5032864;28;20095;-81
2021/08/02 06:25:18;;;;;;;7.03;2.35;;;;;;;15.33;89.36;98894.28;5048010;28;20040;-81
2021/08/02 06:27:44;;;;;;;3.60;2.00;;;;;;;15.20;89.99;98876.91;5036479;28;20123;-82
2021/08/02 06:30:12;;;;;;;6.47;2.40;;;;;;;15.37;90.14;98890.88;5034754;28;20409;-82
2021/08/02 06:32:38;;;;;;;12.75;2.67;;;;;;;15.42;88.82;98890.19;5040517;28;20525;-82
2021/08/02 06:35:06;;;;;;;8.57;2.30;;;;;;;15.48;88.17;98888.47;5033636;28;20049;-82
2021/08/02 06:37:35;;;;;;;5.43;2.30;;;;;;;15.62;88.33;98895.50;5032902;28;20050;-82
2021/08/02 06:40:03;;;;;;;8.32;2.40;;;;;;;15.69;87.72;98885.34;5034335;28;20050;-81
2021/08/02 06:42:31;;;;;;;9.00;2.60;;;;;;;15.73;88.22;98892.03;5042594;28;20056;-82
2021/08/02 06:44:58;;;;;;;4.72;2.45;;;;;;;15.80;86.65;98880.22;5045956;28;20049;-81
2021/08/02 06:47:25;;;;;;;18.95;2.17;;;;;;;15.84;86.04;98874.03;5033143;28;20096;-82
2021/08/02 06:49:51;;;;;;;21.42;2.75;;;;;;;16.02;86.17;98891.59;5038729;28;20126;-82
2021/08/02 06:52:18;;;;;;;13.00;2.40;;;;;;;16.18;85.57;98893.72;5036728;28;20501;-82
2021/08/02 06:54:45;;;;;;;5.38;2.10;;;;;;;16.20;86.33;98897.06;5038145;28;20045;-82
2021/08/02 06:57:11;;;;;;;10.13;2.65;;;;;;;16.31;85.72;98900.13;5041223;28;20172;-82
2021/08/02 06:59:39;;;;;;;3.42;2.25;;;;;;;16.26;85.08;98892.59;5037980;28;20095;-81
2021/08/02 07:02:07;;;;;;;6.35;1.90;;;;;;;16.44;86.07;98905.47;5041513;28;20041;-82
2021/08/02 07:04:34;;;;;;;8.38;2.33;;;;;;;16.53;84.69;98905.97;5041687;28;20042;-81
2021/08/02 07:07:01;;;;;;;11.48;2.50;;;;;;;16.54;84.07;98891.19;5033066;28;20108;-82
2021/08/02 07:09:27;;;;;;;8.82;2.33;;;;;;;16.84;83.58;98904.09;5033938;28;20057;-81
2021/08/02 07:11:54;;;;;;;4.68;2.20;;;;;;;16.88;82.09;98899.88;5042503;28;20118;-81
2021/08/02 07:14:21;;;;;;;2.15;1.95;;;;;;;17.09;81.36;98902.09;5040051;28;20114;-82
2021/08/02 07:16:49;;;;;;;8.07;3.53;;;;;;;17.11;81.40;98910.09;5041199;28;20586;-81
2021/08/02 07:19:16;;;;;;;4.78;1.95;;;;;;;17.15;82.26;98892.06;5044027;28;20100;-82
2021/08/02 07:21:43;;;;;;;3.42;2.00;;;;;;;17.24;80.61;98909.88;5031775;28;20100;-81
2021/08/02 07:24:09;;;;;;;4.50;2.28;;;;;;;17.31;81.02;98896.91;5049545;28;20476;-81
2021/08/02 07:26:36;;;;;;;4.95;2.00;;;;;;;17.45;80.40;98900.25;5045732;28;20095;-81
2021/08/02 07:29:04;;;;;;;4.53;2.17;;;;;;;17.56;78.50;98892.28;5050369;28;20041;-81
2021/08/02 07:31:31;;;;;;;13.63;2.38;;;;;;;17.61;77.63;98887.72;5033698;28;20422;-81
2021/08/02 07:33:59;;;;;;;7.10;2.00;;;;;;;17.66;76.17;98887.84;5031561;28;20053;-81
2021/08/02 07:36:27;;;;;;;5.60;1.63;;;;;;;17.69;76.98;98909.38;5032257;28;20529;-81
2021/08/02 07:38:57;;;;;;;4.90;2.00;;;;;;;17.90;76.79;98900.78;5032875;28;20104;-81
2021/08/02 07:41:24;;;;;;;3.97;2.03;;;;;;;17.76;76.60;98889.16;5032935;28;20489;-81
2021/08/02 07:43:59;;;;;;;3.08;1.85;;;;;;;17.87;77.37;98902.09;5036921;28;20075;-80
2021/08/02 07:46:26;;;;;;;3.97;1.60;;;;;;;17.96;77.66;98902.59;5032890;28;20579;-81
2021/08/02 07:48:53;;;;;;;8.10;2.22;;;;;;;18.05;77.90;98903.94;5039156;28;20042;-80
2021/08/02 07:51:25;;;;;;;4.15;2.00;;;;;;;18.05;75.22;98898.41;5032752;28;20057;-81
2021/08/02 07:53:51;;;;;;;3.22;1.88;;;;;;;18.08;75.34;98902.59;5036313;28;20049;-80
2021/08/02 07:56:21;;;;;;;4.65;2.00;;;;;;;18.17;73.85;98909.38;5035705;28;20041;-81
2021/08/02 07:58:48;;;;;;;2.65;1.50;;;;;;;18.01;73.00;98897.22;5042849;28;20571;-81
2021/08/02 08:01:17;;;;;;;4.85;1.92;;;;;;;18.32;71.96;98901.50;5045510;28;20103;-80
2021/08/02 08:03:44;;;;;;;7.55;1.70;;;;;;;18.33;72.66;98897.66;5051431;28;20049;-81
2021/08/02 08:06:11;;;;;;;5.43;1.88;;;;;;;18.38;72.68;98886.75;5052448;28;20488;-81
2021/08/02 08:08:39;;;;;;;5.32;1.60;;;;;;;18.57;71.16;98894.84;5043355;28;20104;-81
2021/08/02 08:11:06;;;;;;;4.75;1.60;;;;;;;18.79;72.62;98897.78;5049688;28;20077;-81
2021/08/02 08:13:33;;;;;;;7.20;1.85;;;;;;;18.75;70.06;98893.81;5035204;28;20044;-81
2021/08/02 08:16:00;;;;;;;2.95;1.65;;;;;;;18.97;71.62;98898.66;5036385;28;20052;-81
2021/08/02 08:18:28;;;;;;;2.95;1.40;;;;;;;19.04;70.35;98900.19;5034453;28;20048;-81
2021/08/02 08:20:55;;;;;;;5.25;1.55;;;;;;;18.91;67.20;98897.75;5052386;28;20060;-80
2021/08/02 08:23:22;;;;;;;1.80;1.23;;;;;;;18.86;66.83;98894.88;5034801;28;20045;-81
2021/08/02 08:25:50;;;;;;;4.85;1.40;;;;;;;18.95;67.77;98896.16;5037528;28;20432;-81
2021/08/02 08:28:17;;;;;;;3.13;1.55;;;;;;;18.98;67.44;98905.88;5040574;28;20092;-80
2021/08/02 08:30:44;;;;;;;1.95;1.10;;;;;;;18.94;66.72;98891.75;5038543;28;20037;-81
2021/08/02 08:33:11;;;;;;;3.70;1.20;;;;;;;19.12;65.44;98898.97;5040949;28;20555;-81
2021/08/02 08:35:38;;;;;;;9.23;1.48;;;;;;;19.09;65.64;98899.47;5041698;28;20045;-81
2021/08/02 08:38:05;;;;;;;6.93;2.03;;;;;;;19.20;66.58;98887.53;5039989;28;20065;-80
2021/08/02 08:40:33;;;;;;;1.63;1.20;;;;;;;19.61;64.97;98904.78;5045264;28;20489;-81
2021/08/02 08:43:02;;;;;;;3.20;1.20;;;;;;;19.69;64.04;98891.66;5044586;28;20049;-81
2021/08/02 08:45:29;;;;;;;5.43;1.60;;;;;;;19.66;64.70;98886.66;5041868;28;20095;-80
2021/08/02 08:47:57;;;;;;;1.55;1.23;;;;;;;19.77;63.96;98889.34;5038068;28;20045;-81
2021/08/02 08:50:24;;;;;;;2.38;1.55;;;;;;;19.66;63.29;98901.28;5040539;28;20044;-81
2021/08/02 08:52:56;;;;;;;4.70;1.50;;;;;;;19.67;63.70;98897.44;5040948;28;20110;-81
2021/08/02 08:55:22;;;;;;;1.60;1.15;;;;;;;19.47;65.92;98892.41;5048280;28;20515;-80
2021/08/02 08:57:49;;;;;;;2.45;1.30;;;;;;;19.74;62.31;98897.28;5040980;28;20492;-80
2021/08/02 09:00:22;;;;;;;3.42;1.30;;;;;;;20.09;61.88;98898.94;5034785;28;20041;-81
2021/08/02 09:02:49;;;;;;;3.28;1.30;;;;;;;20.10;60.92;98893.16;5034324;28;20464;-81
2021/08/02 09:05:17;;;;;;;4.28;1.40;;;;;;;20.40;62.07;98888.28;5033886;28;20053;-80
2021/08/02 09:07:45;;;;;;;9.20;1.67;;;;;;;20.29;58.76;98907.50;5034820;28;20077;-81
2021/08/02 09:10:13;;;;;;;1.70;1.25;;;;;;;20.43;58.50;98890.53;5049460;28;20512;-81
2021/08/02 09:12:49;;;;;;;2.72;1.30;;;;;;;21.01;57.54;98894.56;5039368;28;20041;-80
2021/08/02 09:15:16;;;;;;;1.15;0.88;;;;;;;21.19;58.13;98893.38;5034551;28;20048;-80
2021/08/02 09:17:44;;;;;;;3.13;1.17;;;;;;;21.43;56.99;98898.59;5038058;28;20041;-81
2021/08/02 09:20:19;;;;;;;1.50;0.90;;;;;;;21.18;56.97;98902.78;5044101;28;20057;-81
2021/08/02 09:22:46;;;;;;;4.60;1.00;;;;;;;21.21;56.89;98899.50;5045763;28;20100;-81
2021/08/02 09:25:14;;;;;;;3.13;1.13;;;;;;;20.69;57.50;98892.56;5035243;28;20049;-81
2021/08/02 09:27:42;;;;;;;2.53;1.27;;;;;;;20.79;57.12;98883.59;5042620;28;20099;-81
2021/08/02 09:30:17;;;;;;;1.20;0.90;;;;;;;20.78;57.01;98892.94;5038016;28;20256;-81
2021/08/02 09:32:51;;;;;;;3.58;0.90;;;;;;;20.94;57.66;98882.91;5044047;28;20132;-81
2021/08/02 09:35:29;;;;;;;2.83;1.23;;;;;;;21.16;57.81;98873.72;5042170;28;20108;-80
2021/08/02 09:37:56;;;;;;;2.10;0.93;;;;;;;21.47;55.07;98885.91;5034826;28;20041;-81
2021/08/02 09:40:23;;;;;;;4.38;1.10;;;;;;;21.30;54.70;98886.03;5049557;28;20061;-81
2021/08/02 09:42:57;;;;;;;1.95;0.90;;;;;;;21.67;60.27;98887.22;5033361;28;20045;-80
2021/08/02 09:45:25;;;;;;;2.38;1.08;;;;;;;21.64;54.79;98883.03;5033465;28;20061;-81
2021/08/02 09:47:53;;;;;;;4.78;1.27;;;;;;;21.96;56.71;98881.31;5042738;28;20077;-81
2021/08/02 09:50:28;;;;;;;2.85;1.48;;;;;;;21.80;57.52;98891.44;5050677;28;20458;-80
2021/08/02 09:52:55;;;;;;;5.13;1.10;;;;;;;21.23;55.24;98879.88;5044376;28;20111;-81
2021/08/02 09:55:22;;;;;;;4.97;1.13;;;;;;;21.14;54.76;98878.69;5041040;28;20079;-81
2021/08/02 09:57:52;;;;;;;1.80;1.00;;;;;;;21.12;57.08;98878.09;5050970;28;20131;-81
2021/08/02 10:00:19;;;;;;;3.95;1.42;;;;;;;20.81;58.56;98886.91;5042085;28;20080;-81
2021/08/02 10:02:47;;;;;;;4.88;1.55;;;;;;;20.78;59.41;98881.91;5040151;28;20052;-81
2021/08/02 10:05:16;;;;;;;1.38;1.13;;;;;;;20.41;55.97;98873.41;5046131;28;20069;-81
2021/08/02 10:07:44;;;;;;;3.40;1.20;;;;;;;20.33;57.32;98869.19;5033219;28;20045;-81
2021/08/02 10:10:12;;;;;;;1.58;1.10;;;;;;;20.46;62.00;98876.22;5044888;28;20041;-80
2021/08/02 10:12:41;;;;;;;6.82;1.20;;;;;;;20.22;63.97;98872.88;5040749;28;20128;-80
2021/08/02 10:15:13;;;;;;;3.80;1.50;;;;;;;20.05;63.12;98886.72;5044790;28;20048;-81
2021/08/02 10:17:41;;;;;;;1.38;0.80;;;;;;;19.86;62.22;98888.91;5037174;28;20046;-81
2021/08/02 10:20:18;;;;;;;5.95;1.25;;;;;;;19.50;64.16;98889.16;5033523;28;20041;-81
2021/08/02 10:22:45;;;;;;;3.83;0.98;;;;;;;19.07;63.30;98883.19;5033111;28;20414;-81
2021/08/02 10:25:12;;;;;;;2.28;1.20;;;;;;;18.95;71.59;98896.16;5040741;28;20041;-81
2021/08/02 10:27:39;;;;;;;3.17;1.23;;;;;;;18.77;71.90;98896.34;5039824;28;20042;-82
2021/08/02 10:30:20;;;;;;;2.13;1.30;;;;;;;18.49;75.60;98890.56;5033061;28;20144;-81
2021/08/02 10:32:56;;;;;;;2.05;1.30;;;;;;;18.42;77.92;98880.78;5034220;28;20504;-81
2021/08/02 10:35:39;;;;;;;2.58;1.30;;;;;;;18.30;73.91;98876.13;5042332;28;20051;-82
2021/08/02 10:38:07;;;;;;;2.22;1.25;;;;;;;18.35;75.98;98873.50;5032768;28;20088;-81
2021/08/02 10:40:57;;;;;;;2.88;1.20;;;;;;;18.50;76.77;98880.38;5034629;28;20104;-81
2021/08/02 10:43:29;;;;;;;1.48;1.20;;;;;;;18.47;74.24;98881.72;5046463;28;20045;-81
2021/08/02 10:45:56;;;;;;;3.05;0.85;;;;;;;18.20;74.39;98860.25;5042890;28;20052;-81
2021/08/02 10:48:25;;;;;;;1.38;1.10;;;;;;;18.27;76.16;98879.34;5042319;28;20401;-81
2021/08/02 10:50:53;;;;;;;2.63;1.05;;;;;;;18.09;74.55;98880.34;5039981;28;20049;-81
2021/08/02 10:53:20;;;;;;;4.20;0.95;;;;;;;18.03;75.46;98860.13;5037950;28;20060;-80
2021/08/02 10:55:49;;;;;;;1.05;0.90;;;;;;;18.21;71.75;98875.66;5040296;28;20054;-80
2021/08/02 10:58:31;;;;;;;1.60;0.80;;;;;;;17.89;72.59;98866.13;5043328;28;20136;-80
2021/08/02 11:00:59;;;;;;;1.55;0.98;;;;;;;18.03;73.47;98871.13;5032121;28;20464;-80
2021/08/02 11:03:35;;;;;;;1.38;0.88;;;;;;;18.36;73.29;98866.06;5031669;28;20132;-81
2021/08/02 11:06:09;;;;;;;1.10;1.00;;;;;;;18.49;72.50;98859.47;5032419;28;20513;-80
2021/08/02 11:08:43;;;;;;;2.47;1.00;;;;;;;18.82;71.62;98849.59;5032627;28;20056;-81
2021/08/02 11:11:10;;;;;;;1.67;1.10;;;;;;;19.22;71.28;98866.06;5037735;28;20060;-81
2021/08/02 11:13:37;;;;;;;1.58;0.82;;;;;;;19.52;70.03;98859.41;5051053;28;20037;-81
2021/08/02 11:16:05;;;;;;;2.55;0.85;;;;;;;19.72;68.82;98869.94;5039339;28;20053;-81
2021/08/02 11:18:32;;;;;;;2.13;1.10;;;;;;;19.82;69.63;98860.19;5048519;28;20128;-81
2021/08/02 11:20:58;;;;;;;1.00;0.88;;;;;;;19.99;67.42;98863.72;5033066;28;20099;-81
2021/08/02 11:23:34;;;;;;;1.45;1.05;;;;;;;20.34;67.87;98862.56;5034350;28;20112;-81
2021/08/02 11:26:08;;;;;;;0.88;0.88;;;;;;;20.29;69.02;98851.44;5042598;28;20046;-81
2021/08/02 11:28:40;;;;;;;3.80;1.08;;;;;;;20.36;67.79;98854.03;5036021;28;20053;-81
2021/08/02 11:31:08;;;;;;;3.30;1.00;;;;;;;20.35;68.13;98847.66;5040592;28;20053;-81
2021/08/02 11:33:36;;;;;;;1.33;0.75;;;;;;;20.00;68.93;98850.78;5033532;28;20069;-81
2021/08/02 11:36:04;;;;;;;1.10;0.70;;;;;;;20.29;67.17;98846.78;5038126;28;20448;-82
2021/08/02 11:38:40;;;;;;;0.98;0.73;;;;;;;20.39;65.39;98850.75;5041055;28;20466;-81
2021/08/02 11:41:07;;;;;;;1.27;0.70;;;;;;;20.61;65.34;98843.28;5039600;28;20107;-81
2021/08/02 11:43:42;;;;;;;0.82;0.63;;;;;;;20.82;65.37;98849.06;5033614;28;20042;-81